createdAt,value
2019-05-22T00:00:29.053Z,99.90
2019-05-22T00:02:59.295Z,99.90
2019-05-22T00:05:31.984Z,99.90
2019-05-22T00:08:02.423Z,99.90
2019-05-22T00:10:32.969Z,99.90
2019-05-22T00:13:03.397Z,99.90
2019-05-22T00:15:33.456Z,99.90
2019-05-22T00:18:02.942Z,99.90
2019-05-22T00:20:31.517Z,99.90
2019-05-22T00:23:04.082Z,99.90
2019-05-22T00:25:35.032Z,99.90
2019-05-22T00:28:04.602Z,99.90
2019-05-22T00:30:34.741Z,99.90
2019-05-22T00:33:05.869Z,99.90
2019-05-22T00:35:36.827Z,99.90
2019-05-22T00:38:07.152Z,99.90
2019-05-22T00:40:37.934Z,99.90
2019-05-22T00:43:13.742Z,99.90
2019-05-22T00:45:38.149Z,99.90
2019-05-22T00:48:07.814Z,99.90
2019-05-22T00:50:53.311Z,99.90
2019-05-22T00:53:42.513Z,99.90
2019-05-22T00:56:17.073Z,99.90
2019-05-22T00:59:01.273Z,99.90
2019-05-22T01:01:32.318Z,99.90
2019-05-22T01:04:02.442Z,99.90
2019-05-22T01:06:32.509Z,99.90
2019-05-22T01:09:04.410Z,99.90
2019-05-22T01:11:33.895Z,99.90
2019-05-22T01:14:04.315Z,99.90
2019-05-22T01:16:33.885Z,99.90
2019-05-22T01:19:03.035Z,99.90
2019-05-22T01:21:33.243Z,99.90
2019-05-22T01:24:03.863Z,99.90
2019-05-22T01:26:34.123Z,99.90
2019-05-22T01:29:02.681Z,99.90
2019-05-22T01:31:32.839Z,99.90
2019-05-22T01:34:05.619Z,99.90
2019-05-22T01:36:35.674Z,99.90
2019-05-22T01:39:17.443Z,99.90
2019-05-22T01:41:50.359Z,99.90
2019-05-22T01:44:20.420Z,99.90
2019-05-22T01:46:50.684Z,99.90
2019-05-22T01:49:19.104Z,99.90
2019-05-22T01:51:48.007Z,99.90
2019-05-22T01:54:18.112Z,99.90
2019-05-22T01:56:46.704Z,99.90
2019-05-22T01:59:15.199Z,99.90
2019-05-22T02:01:45.296Z,99.90
2019-05-22T02:04:15.082Z,99.90
2019-05-22T02:06:44.664Z,99.90
2019-05-22T02:09:23.881Z,99.90
2019-05-22T02:12:02.718Z,99.90
2019-05-22T02:14:32.370Z,99.90
2019-05-22T02:17:01.484Z,99.90
2019-05-22T02:19:30.388Z,99.90
2019-05-22T02:21:59.705Z,99.90
2019-05-22T02:24:28.658Z,99.90
2019-05-22T02:26:58.528Z,99.90
2019-05-22T02:29:26.948Z,99.90
2019-05-22T02:31:58.333Z,99.90
2019-05-22T02:34:28.257Z,99.90
2019-05-22T02:36:57.761Z,99.90
2019-05-22T02:39:32.485Z,99.90
2019-05-22T02:42:05.275Z,99.90
2019-05-22T02:44:35.410Z,99.90
2019-05-22T02:47:18.370Z,99.90
2019-05-22T02:49:35.801Z,99.90
2019-05-22T02:52:06.387Z,99.90
2019-05-22T02:54:35.889Z,99.90
2019-05-22T02:57:06.720Z,99.90
2019-05-22T02:59:35.793Z,99.90
2019-05-22T03:02:06.859Z,99.90
2019-05-22T03:04:56.185Z,99.90
2019-05-22T03:07:25.642Z,99.90
2019-05-22T03:09:55.017Z,99.90
2019-05-22T03:12:24.296Z,99.90
2019-05-22T03:14:52.790Z,99.90
2019-05-22T03:17:27.790Z,99.90
2019-05-22T03:19:57.783Z,99.90
2019-05-22T03:22:33.501Z,99.90
2019-05-22T03:25:05.201Z,99.90
2019-05-22T03:27:47.882Z,99.90
2019-05-22T03:30:32.615Z,99.90
2019-05-22T03:33:02.430Z,99.90
2019-05-22T03:35:35.008Z,99.90
2019-05-22T03:38:04.842Z,99.90
2019-05-22T03:40:37.560Z,99.90
2019-05-22T03:43:24.630Z,99.90
2019-05-22T03:45:56.098Z,99.90
2019-05-22T03:48:25.100Z,99.90
2019-05-22T03:50:59.748Z,99.90
2019-05-22T03:53:28.247Z,99.90
2019-05-22T03:55:57.696Z,99.90
2019-05-22T03:58:26.277Z,99.90
2019-05-22T04:00:56.542Z,99.90
2019-05-22T04:03:26.274Z,99.90
2019-05-22T04:05:55.949Z,99.90
2019-05-22T04:08:26.749Z,99.90
2019-05-22T04:11:02.008Z,99.90
2019-05-22T04:13:31.970Z,99.90
2019-05-22T04:16:03.130Z,99.90
2019-05-22T04:18:32.658Z,99.90
2019-05-22T04:21:03.303Z,99.90
2019-05-22T04:23:32.386Z,99.90
2019-05-22T04:26:02.005Z,99.90
2019-05-22T04:28:31.132Z,99.90
2019-05-22T04:31:00.193Z,99.90
2019-05-22T04:33:30.619Z,99.90
2019-05-22T04:36:00.656Z,99.90
2019-05-22T04:38:29.675Z,99.90
2019-05-22T04:40:59.743Z,99.90
2019-05-22T04:43:32.107Z,99.90
2019-05-22T04:46:00.724Z,99.90
2019-05-22T04:48:31.476Z,99.90
2019-05-22T04:51:03.820Z,99.90
2019-05-22T04:53:32.620Z,99.90
2019-05-22T04:56:01.298Z,99.90
2019-05-22T04:58:30.104Z,99.90
2019-05-22T05:00:58.982Z,99.90
2019-05-22T05:03:28.525Z,99.90
2019-05-22T05:05:57.314Z,99.90
2019-05-22T05:08:26.084Z,99.90
2019-05-22T05:10:56.065Z,99.90
2019-05-22T05:13:26.424Z,99.90
2019-05-22T05:15:54.926Z,99.90
2019-05-22T05:18:23.409Z,99.90
2019-05-22T05:20:52.112Z,99.90
2019-05-22T05:23:20.586Z,99.90
2019-05-22T05:25:49.757Z,99.90
2019-05-22T05:28:19.333Z,99.90
2019-05-22T05:30:48.117Z,99.90
2019-05-22T05:33:17.324Z,99.90
2019-05-22T05:35:46.032Z,99.90
2019-05-22T05:38:15.739Z,99.90
2019-05-22T05:40:45.157Z,99.90
2019-05-22T05:43:15.647Z,99.90
2019-05-22T05:45:46.574Z,99.90
2019-05-22T05:48:22.476Z,99.90
2019-05-22T05:51:06.220Z,99.90
2019-05-22T05:53:56.590Z,99.90
2019-05-22T05:56:36.983Z,99.90
2019-05-22T05:59:07.442Z,99.90
2019-05-22T06:01:39.454Z,99.90
2019-05-22T06:04:08.293Z,99.90
2019-05-22T06:06:40.247Z,99.90
2019-05-22T06:09:10.625Z,99.90
2019-05-22T06:11:46.129Z,99.90
2019-05-22T06:14:23.727Z,99.90
2019-05-22T06:17:04.868Z,99.90
2019-05-22T06:19:33.381Z,99.90
2019-05-22T06:22:01.865Z,99.90
2019-05-22T06:24:36.810Z,99.90
2019-05-22T06:27:11.665Z,99.90
2019-05-22T06:29:56.843Z,99.90
2019-05-22T06:33:01.611Z,99.90
2019-05-22T06:35:36.170Z,99.90
2019-05-22T06:38:27.289Z,99.90
2019-05-22T06:40:55.797Z,99.90
2019-05-22T06:43:28.930Z,99.90
2019-05-22T06:45:57.810Z,99.90
2019-05-22T06:48:26.723Z,99.90
2019-05-22T06:50:56.369Z,99.90
2019-05-22T06:53:24.797Z,99.90
2019-05-22T06:55:53.210Z,99.90
2019-05-22T06:58:21.706Z,99.90
2019-05-22T07:00:50.782Z,99.90
2019-05-22T07:03:19.431Z,99.90
2019-05-22T07:05:49.007Z,99.90
2019-05-22T07:08:17.569Z,99.90
2019-05-22T07:10:46.544Z,99.90
2019-05-22T07:13:16.912Z,99.90
2019-05-22T07:15:46.256Z,99.90
2019-05-22T07:18:16.350Z,99.90
2019-05-22T07:20:46.595Z,99.90
2019-05-22T07:23:17.799Z,99.90
2019-05-22T07:25:47.447Z,99.90
2019-05-22T07:28:18.084Z,99.90
2019-05-22T07:30:48.768Z,99.90
2019-05-22T07:33:18.560Z,99.90
2019-05-22T07:36:07.940Z,99.90
2019-05-22T07:38:19.395Z,99.90
2019-05-22T07:40:50.341Z,99.90
2019-05-22T07:43:19.476Z,99.90
2019-05-22T07:45:48.460Z,99.90
2019-05-22T07:48:18.400Z,99.90
2019-05-22T07:50:49.971Z,99.90
2019-05-22T07:53:18.384Z,99.90
2019-05-22T07:55:49.048Z,99.90
2019-05-22T07:58:18.461Z,99.90
2019-05-22T08:00:50.921Z,99.90
2019-05-22T08:03:21.535Z,99.90
2019-05-22T08:05:55.000Z,99.90
2019-05-22T08:08:25.712Z,99.90
2019-05-22T08:10:55.969Z,99.90
2019-05-22T08:13:26.644Z,99.90
2019-05-22T08:15:55.444Z,99.90
2019-05-22T08:18:25.877Z,99.90
2019-05-22T08:20:54.313Z,99.90
2019-05-22T08:23:24.081Z,99.90
2019-05-22T08:25:52.693Z,99.90
2019-05-22T08:28:22.257Z,99.90
2019-05-22T08:30:51.337Z,99.90
2019-05-22T08:33:21.359Z,99.90
2019-05-22T08:35:50.303Z,99.90
2019-05-22T08:38:21.213Z,99.90
2019-05-22T08:40:51.377Z,99.90
2019-05-22T08:43:20.341Z,99.90
2019-05-22T08:45:49.454Z,99.90
2019-05-22T08:48:19.622Z,99.90
2019-05-22T08:50:48.245Z,99.90
2019-05-22T08:53:18.385Z,99.90
2019-05-22T08:55:47.649Z,99.90
2019-05-22T08:58:16.357Z,99.90
2019-05-22T09:00:47.017Z,99.90
2019-05-22T09:03:16.390Z,99.90
2019-05-22T09:05:45.545Z,99.90
2019-05-22T09:08:14.393Z,99.90
2019-05-22T09:10:42.871Z,99.90
2019-05-22T09:13:11.306Z,99.90
2019-05-22T09:15:40.670Z,99.90
2019-05-22T09:18:09.238Z,99.90
2019-05-22T09:20:48.686Z,99.90
2019-05-22T09:23:09.670Z,99.90
2019-05-22T09:25:38.519Z,99.90
2019-05-22T09:28:07.229Z,99.90
2019-05-22T09:30:36.583Z,99.90
2019-05-22T09:33:05.612Z,99.90
2019-05-22T09:35:34.664Z,99.90
2019-05-22T09:38:03.141Z,99.90
2019-05-22T09:40:32.932Z,99.90
2019-05-22T09:43:02.299Z,99.90
2019-05-22T09:45:31.006Z,99.90
2019-05-22T09:47:59.787Z,99.90
2019-05-22T09:50:29.053Z,99.90
2019-05-22T09:52:58.514Z,99.90
2019-05-22T09:55:27.119Z,99.90
2019-05-22T09:57:55.732Z,99.90
2019-05-22T10:00:25.120Z,99.90
2019-05-22T10:02:54.455Z,99.90
2019-05-22T10:05:22.868Z,99.90
2019-05-22T10:08:00.398Z,99.90
2019-05-22T10:10:22.762Z,99.90
2019-05-22T10:12:51.489Z,99.90
2019-05-22T10:15:20.911Z,99.90
2019-05-22T10:17:50.232Z,99.90
2019-05-22T10:20:20.506Z,99.90
2019-05-22T10:22:49.504Z,99.90
2019-05-22T10:25:18.569Z,99.90
2019-05-22T10:27:48.806Z,99.90
2019-05-22T10:30:20.719Z,99.90
2019-05-22T10:32:49.970Z,99.90
2019-05-22T10:35:22.153Z,99.60
2019-05-22T10:37:50.814Z,99.90
2019-05-22T10:40:19.874Z,99.30
2019-05-22T10:42:48.573Z,99.30
2019-05-22T10:45:17.060Z,98.40
2019-05-22T10:47:45.848Z,98.60
2019-05-22T10:50:14.563Z,98.90
2019-05-22T10:52:43.512Z,99.10
2019-05-22T10:55:14.667Z,99.30
2019-05-22T10:57:44.368Z,99.40
2019-05-22T11:03:11.356Z,98.60
2019-05-22T11:05:40.636Z,98.20
2019-05-22T11:08:09.953Z,97.60
2019-05-22T11:10:38.386Z,96.70
2019-05-22T11:13:07.535Z,96.20
2019-05-22T11:15:36.042Z,95.40
2019-05-22T11:18:05.047Z,95.10
2019-05-22T11:20:34.099Z,94.90
2019-05-22T11:23:02.973Z,94.00
2019-05-22T11:25:31.827Z,93.90
2019-05-22T11:28:00.235Z,93.60
2019-05-22T11:30:29.298Z,94.00
2019-05-22T11:32:58.927Z,93.90
2019-05-22T11:35:28.970Z,92.10
2019-05-22T11:37:57.520Z,92.40
2019-05-22T11:40:27.003Z,92.70
2019-05-22T11:42:55.424Z,92.30
2019-05-22T11:45:24.995Z,92.00
2019-05-22T11:47:53.559Z,91.00
2019-05-22T11:50:22.267Z,90.50
2019-05-22T11:52:51.227Z,91.20
2019-05-22T11:55:20.871Z,90.40
2019-05-22T11:57:49.943Z,89.90
2019-05-22T12:00:21.288Z,90.30
2019-05-22T12:02:51.617Z,90.80
2019-05-22T12:05:20.750Z,91.10
2019-05-22T12:07:50.149Z,90.50
2019-05-22T12:10:21.993Z,89.90
2019-05-22T12:12:52.841Z,89.90
2019-05-22T12:15:25.006Z,90.20
2019-05-22T12:17:53.515Z,88.70
2019-05-22T12:20:23.442Z,90.30
2019-05-22T12:22:51.937Z,90.50
2019-05-22T12:25:40.650Z,90.00
2019-05-22T12:28:09.810Z,90.10
2019-05-22T12:30:38.980Z,90.90
2019-05-22T12:33:13.675Z,90.20
2019-05-22T12:35:41.126Z,90.30
2019-05-22T12:38:10.662Z,90.30
2019-05-22T12:40:39.142Z,90.90
2019-05-22T12:43:07.590Z,90.50
2019-05-22T12:45:36.099Z,90.10
2019-05-22T12:48:05.815Z,90.00
2019-05-22T12:50:35.559Z,88.80
2019-05-22T12:53:06.751Z,87.90
2019-05-22T12:55:36.022Z,86.80
2019-05-22T12:58:05.943Z,83.90
2019-05-22T13:00:35.616Z,83.20
2019-05-22T13:03:06.588Z,84.20
2019-05-22T13:05:37.682Z,82.50
2019-05-22T13:08:07.029Z,82.50
2019-05-22T13:10:36.672Z,81.80
2019-05-22T13:13:05.238Z,79.40
2019-05-22T13:15:35.345Z,80.80
2019-05-22T13:18:05.376Z,80.00
2019-05-22T13:20:42.973Z,75.30
2019-05-22T13:23:09.174Z,72.60
2019-05-22T13:25:39.552Z,70.80
2019-05-22T13:28:29.232Z,69.90
2019-05-22T13:30:59.804Z,70.30
2019-05-22T13:33:29.386Z,69.70
2019-05-22T13:35:58.126Z,71.00
2019-05-22T13:38:27.484Z,70.20
2019-05-22T13:40:57.032Z,71.20
2019-05-22T13:43:27.525Z,70.20
2019-05-22T13:45:56.101Z,70.60
2019-05-22T13:48:25.223Z,69.60
2019-05-22T13:50:54.081Z,70.20
2019-05-22T13:53:22.884Z,67.70
2019-05-22T13:55:51.801Z,63.00
2019-05-22T13:58:21.718Z,55.80
2019-05-22T14:00:50.848Z,51.40
2019-05-22T14:03:20.727Z,44.90
2019-05-22T14:05:49.969Z,38.70
2019-05-22T14:08:18.590Z,34.60
2019-05-22T14:10:49.732Z,31.30
2019-05-22T14:13:17.476Z,29.50
2019-05-22T14:15:52.557Z,27.90
2019-05-22T14:18:16.247Z,26.80
2019-05-22T14:20:44.688Z,25.90
2019-05-22T14:23:13.859Z,25.50
2019-05-22T14:25:43.496Z,24.50
2019-05-22T14:28:13.899Z,23.30
2019-05-22T14:30:43.100Z,24.20
2019-05-22T14:33:12.529Z,24.10
2019-05-22T14:35:48.376Z,23.70
2019-05-22T14:38:13.347Z,23.40
2019-05-22T14:40:42.172Z,22.80
2019-05-22T14:43:11.192Z,22.90
2019-05-22T14:45:39.709Z,23.10
2019-05-22T14:48:09.088Z,22.50
2019-05-22T14:50:37.596Z,22.40
2019-05-22T14:53:06.189Z,22.80
2019-05-22T14:55:34.714Z,24.70
2019-05-22T14:58:05.310Z,25.40
2019-05-22T15:00:35.240Z,26.90
2019-05-22T15:03:04.813Z,25.70
2019-05-22T15:05:34.053Z,25.10
2019-05-22T15:08:03.451Z,24.10
2019-05-22T15:10:33.126Z,24.00
2019-05-22T15:13:02.425Z,24.40
2019-05-22T15:15:31.705Z,23.90
2019-05-22T15:18:00.219Z,24.50
2019-05-22T15:20:48.906Z,24.60
2019-05-22T15:23:17.318Z,24.70
2019-05-22T15:25:46.591Z,26.60
2019-05-22T15:28:15.077Z,26.40
2019-05-22T15:30:43.509Z,27.10
2019-05-22T15:33:12.581Z,26.30
2019-05-22T15:35:41.977Z,27.60
2019-05-22T15:38:12.345Z,28.50
2019-05-22T15:40:40.845Z,28.80
2019-05-22T15:43:11.413Z,29.10
2019-05-22T15:45:42.340Z,28.80
2019-05-22T15:48:15.530Z,29.60
2019-05-22T15:50:44.790Z,31.10
2019-05-22T15:53:15.306Z,31.90
2019-05-22T15:55:47.698Z,32.30
2019-05-22T15:58:17.939Z,34.40
2019-05-22T16:00:47.621Z,34.70
2019-05-22T16:03:21.081Z,35.50
2019-05-22T16:05:51.293Z,35.70
2019-05-22T16:08:19.797Z,36.40
2019-05-22T16:10:51.067Z,37.30
2019-05-22T16:13:22.710Z,37.20
2019-05-22T16:15:54.539Z,37.50
2019-05-22T16:18:29.517Z,37.00
2019-05-22T16:21:01.238Z,37.50
2019-05-22T16:23:38.339Z,38.70
2019-05-22T16:26:08.930Z,39.20
2019-05-22T16:28:39.613Z,39.30
2019-05-22T16:31:10.547Z,40.00
2019-05-22T16:33:41.620Z,40.30
2019-05-22T16:36:10.842Z,39.80
2019-05-22T16:38:39.951Z,39.40
2019-05-22T16:41:10.655Z,39.40
2019-05-22T16:43:49.085Z,40.40
2019-05-22T16:46:15.109Z,41.10
2019-05-22T16:48:44.550Z,41.40
2019-05-22T16:51:15.371Z,41.20
2019-05-22T16:53:46.862Z,41.30
2019-05-22T16:56:15.535Z,41.00
2019-05-22T16:58:44.127Z,41.30
2019-05-22T17:01:13.659Z,41.10
2019-05-22T17:03:42.446Z,41.90
2019-05-22T17:06:11.167Z,41.50
2019-05-22T17:08:39.861Z,40.70
2019-05-22T17:11:09.179Z,41.80
2019-05-22T17:13:38.669Z,41.60
2019-05-22T17:16:08.597Z,42.00
2019-05-22T17:18:46.939Z,42.20
2019-05-22T17:21:07.802Z,41.90
2019-05-22T17:23:36.346Z,41.70
2019-05-22T17:26:05.605Z,40.80
2019-05-22T17:28:34.351Z,40.80
2019-05-22T17:31:03.142Z,40.90
2019-05-22T17:33:33.677Z,40.80
2019-05-22T17:36:05.769Z,40.10
2019-05-22T17:38:33.870Z,40.40
2019-05-22T17:41:03.428Z,40.80
2019-05-22T17:43:33.786Z,41.20
2019-05-22T17:46:02.349Z,41.90
2019-05-22T17:48:32.962Z,41.80
2019-05-22T17:51:01.391Z,41.90
2019-05-22T17:53:29.930Z,42.10
2019-05-22T17:55:58.614Z,41.20
2019-05-22T17:58:29.985Z,40.60
2019-05-22T18:00:58.278Z,40.00
2019-05-22T18:03:26.818Z,39.70
2019-05-22T18:05:55.300Z,40.00
2019-05-22T18:08:23.966Z,41.10
2019-05-22T18:10:53.685Z,41.20
2019-05-22T18:13:22.107Z,41.70
2019-05-22T18:15:50.545Z,42.40
2019-05-22T18:18:19.523Z,42.40
2019-05-22T18:20:48.618Z,42.70
2019-05-22T18:23:17.056Z,43.00
2019-05-22T18:25:45.763Z,43.40
2019-05-22T18:28:15.587Z,43.60
2019-05-22T18:30:44.559Z,43.70
2019-05-22T18:33:13.954Z,43.30
2019-05-22T18:35:42.632Z,45.40
2019-05-22T18:38:11.202Z,47.20
2019-05-22T18:40:39.983Z,47.90
2019-05-22T18:43:08.689Z,48.20
2019-05-22T18:45:38.959Z,48.60
2019-05-22T18:48:07.675Z,49.10
2019-05-22T18:50:36.895Z,49.90
2019-05-22T18:53:06.467Z,50.90
2019-05-22T18:55:34.898Z,51.50
2019-05-22T18:58:03.341Z,52.30
2019-05-22T19:00:33.709Z,52.90
2019-05-22T19:03:02.621Z,53.60
2019-05-22T19:05:32.648Z,54.00
2019-05-22T19:08:01.162Z,54.60
2019-05-22T19:10:29.864Z,55.10
2019-05-22T19:12:58.646Z,55.80
2019-05-22T19:15:27.982Z,56.30
2019-05-22T19:17:56.743Z,56.90
2019-05-22T19:20:25.166Z,57.30
2019-05-22T19:23:00.458Z,57.70
2019-05-22T19:25:24.128Z,57.60
2019-05-22T19:27:52.542Z,57.50
2019-05-22T19:30:22.116Z,57.80
2019-05-22T19:32:50.847Z,58.10
2019-05-22T19:35:19.274Z,58.40
2019-05-22T19:37:47.698Z,58.60
2019-05-22T19:40:18.628Z,58.70
2019-05-22T19:42:49.314Z,59.00
2019-05-22T19:45:18.752Z,59.00
2019-05-22T19:47:52.924Z,59.70
2019-05-22T19:50:23.845Z,59.40
2019-05-22T19:52:55.111Z,60.10
2019-05-22T19:55:26.506Z,60.80
2019-05-22T19:57:55.310Z,61.30
2019-05-22T20:00:24.697Z,61.70
2019-05-22T20:02:54.911Z,62.20
2019-05-22T20:05:24.165Z,62.30
2019-05-22T20:07:53.209Z,62.30
2019-05-22T20:10:22.379Z,62.50
2019-05-22T20:12:50.819Z,62.80
2019-05-22T20:15:20.381Z,62.70
2019-05-22T20:17:48.933Z,62.80
2019-05-22T20:20:19.659Z,62.90
2019-05-22T20:22:49.599Z,63.30
2019-05-22T20:25:19.234Z,63.40
2019-05-22T20:27:48.038Z,63.80
2019-05-22T20:30:37.786Z,64.30
2019-05-22T20:33:06.592Z,64.70
2019-05-22T20:35:35.604Z,65.20
2019-05-22T20:38:04.337Z,65.50
2019-05-22T20:40:33.455Z,65.80
2019-05-22T20:43:01.965Z,66.50
2019-05-22T20:45:30.463Z,67.00
2019-05-22T20:48:08.050Z,67.70
2019-05-22T20:50:37.366Z,68.10
2019-05-22T20:53:07.528Z,68.80
2019-05-22T20:55:36.923Z,69.20
2019-05-22T20:58:06.384Z,69.70
2019-05-22T21:00:36.456Z,69.80
2019-05-22T21:03:08.180Z,70.10
2019-05-22T21:05:37.163Z,70.70
2019-05-22T21:08:08.860Z,71.10
2019-05-22T21:10:37.935Z,71.30
2019-05-22T21:13:08.135Z,71.70
2019-05-22T21:15:36.947Z,72.40
2019-05-22T21:18:05.503Z,72.70
2019-05-22T21:20:34.140Z,72.50
2019-05-22T21:23:03.602Z,72.80
2019-05-22T21:25:32.455Z,72.50
2019-05-22T21:28:01.452Z,71.90
2019-05-22T21:30:29.964Z,71.30
2019-05-22T21:32:58.556Z,71.10
2019-05-22T21:35:27.161Z,71.10
2019-05-22T21:37:56.488Z,70.70
2019-05-22T21:40:25.856Z,70.10
2019-05-22T21:42:55.606Z,70.50
2019-05-22T21:45:25.674Z,70.90
2019-05-22T21:47:54.646Z,71.60
2019-05-22T21:50:23.619Z,71.60
2019-05-22T21:52:53.639Z,71.90
2019-05-22T21:55:24.195Z,72.40
2019-05-22T21:57:53.347Z,72.80
2019-05-22T22:00:40.709Z,72.70
2019-05-22T22:03:12.600Z,72.70
2019-05-22T22:05:44.523Z,73.10
2019-05-22T22:08:13.040Z,73.40
2019-05-22T22:10:42.469Z,73.80
2019-05-22T22:13:12.523Z,74.20
2019-05-22T22:15:41.141Z,74.10
2019-05-22T22:18:12.425Z,74.30
2019-05-22T22:20:41.173Z,74.60
2019-05-22T22:23:12.497Z,75.10
2019-05-22T22:25:41.449Z,74.90
2019-05-22T22:28:12.797Z,75.40
2019-05-22T22:30:52.137Z,75.90
2019-05-22T22:33:25.204Z,76.40
2019-05-22T22:35:54.582Z,76.60
2019-05-22T22:38:25.482Z,76.90
2019-05-22T22:40:56.047Z,77.30
2019-05-22T22:43:27.942Z,77.70
2019-05-22T22:46:05.189Z,78.00
2019-05-22T22:48:40.690Z,78.40
2019-05-22T22:51:12.509Z,79.00
2019-05-22T22:53:43.892Z,79.30
2019-05-22T22:56:13.006Z,79.50
2019-05-22T22:58:42.386Z,79.60
2019-05-22T23:01:15.050Z,80.10
2019-05-22T23:03:47.143Z,80.30
2019-05-22T23:06:17.095Z,80.40
2019-05-22T23:08:47.727Z,80.50
2019-05-22T23:11:17.068Z,80.70
2019-05-22T23:13:45.973Z,80.70
2019-05-22T23:16:15.930Z,80.90
2019-05-22T23:19:06.695Z,80.90
2019-05-22T23:21:35.671Z,81.20
2019-05-22T23:24:04.177Z,81.40
2019-05-22T23:26:34.387Z,81.80
2019-05-22T23:29:03.156Z,82.40
2019-05-22T23:31:33.195Z,82.50
2019-05-22T23:34:03.027Z,82.60
2019-05-22T23:36:33.151Z,82.80
2019-05-22T23:39:06.110Z,82.70
2019-05-22T23:41:36.955Z,83.00
2019-05-22T23:44:08.790Z,83.40
2019-05-22T23:46:38.234Z,83.60
2019-05-22T23:49:06.647Z,83.70
2019-05-22T23:51:35.308Z,83.80
2019-05-22T23:54:05.841Z,84.00
2019-05-22T23:56:36.447Z,84.20
2019-05-22T23:59:05.156Z,84.30
